Time;durP1;ratioP1;P1;durP2;ratioP2;P2;SDS_P1;SDS_P2;PMS_P1;PMS_P2;Temp;Humidity;BMP_temperature;BMP_pressure;BME280_temperature;BME280_humidity;BME280_pressure;Samples;Min_cycle;Max_cycle;Signal;HPM_P1;HPM_P2
2023/01/27 00:00:23;;;;;;;18.33;7.60;;;;;;;-0.33;100.00;101158.63;5002687;28;20042;-71
2023/01/27 00:02:49;;;;;;;17.33;7.30;;;;;;;-0.28;100.00;101154.53;5005387;28;20038;-71
2023/01/27 00:05:15;;;;;;;20.37;8.33;;;;;;;-0.24;100.00;101159.94;5003087;28;20080;-71
2023/01/27 00:07:44;;;;;;;18.73;7.53;;;;;;;-0.26;100.00;101143.41;5000576;28;20034;-71
2023/01/27 00:10:12;;;;;;;20.70;6.83;;;;;;;-0.24;100.00;101146.97;5003545;28;20038;-71
2023/01/27 00:15:21;;;;;;;22.80;8.93;;;;;;;-0.25;100.00;101133.94;5004222;28;20038;-72
2023/01/27 00:17:46;;;;;;;23.53;7.10;;;;;;;-0.35;100.00;101147.28;5007749;28;20037;-71
2023/01/27 00:20:12;;;;;;;25.27;10.17;;;;;;;-0.39;100.00;101140.16;5000846;28;20044;-71
2023/01/27 00:25:21;;;;;;;28.70;8.77;;;;;;;-0.42;100.00;101140.00;5006276;28;20030;-71
2023/01/27 00:27:46;;;;;;;23.50;8.20;;;;;;;-0.41;100.00;101132.31;5001772;28;20489;-71
2023/01/27 00:30:12;;;;;;;21.53;7.33;;;;;;;-0.40;100.00;101123.72;5003487;28;20441;-71
2023/01/27 00:35:24;;;;;;;22.07;6.87;;;;;;;-0.41;100.00;101145.28;4998674;28;20031;-72
2023/01/27 00:37:49;;;;;;;25.23;7.80;;;;;;;-0.41;100.00;101134.03;5001208;28;20038;-71
2023/01/27 00:40:15;;;;;;;25.60;7.37;;;;;;;-0.41;100.00;101136.63;5000348;28;20041;-71
2023/01/27 00:42:41;;;;;;;18.70;7.13;;;;;;;-0.42;100.00;101137.41;5003694;28;20034;-71
2023/01/27 00:47:51;;;;;;;22.17;6.67;;;;;;;-0.39;100.00;101132.38;5009110;28;20034;-71
2023/01/27 00:50:18;;;;;;;18.73;6.83;;;;;;;-0.36;100.00;101129.94;5003269;28;20088;-71
2023/01/27 00:52:44;;;;;;;23.10;7.37;;;;;;;-0.42;100.00;101133.09;5002062;28;20051;-71
2023/01/27 00:55:10;;;;;;;20.47;7.00;;;;;;;-0.45;100.00;101131.28;4999979;28;20042;-71
2023/01/27 00:57:37;;;;;;;18.57;6.03;;;;;;;-0.38;100.00;101131.56;5004452;28;20022;-72
2023/01/27 01:00:04;;;;;;;21.50;7.57;;;;;;;-0.41;100.00;101134.03;5002581;28;20118;-71
2023/01/27 01:02:30;;;;;;;20.90;6.30;;;;;;;-0.41;100.00;101137.50;5002788;28;20148;-71
2023/01/27 01:04:55;;;;;;;22.03;6.30;;;;;;;-0.34;100.00;101136.97;5003311;28;20121;-71
2023/01/27 01:07:21;;;;;;;26.57;7.27;;;;;;;-0.41;100.00;101134.91;5000072;28;20053;-71
2023/01/27 01:09:46;;;;;;;21.00;5.80;;;;;;;-0.40;100.00;101135.78;5001499;28;20046;-71
2023/01/27 01:12:11;;;;;;;22.23;6.50;;;;;;;-0.46;100.00;101131.19;5003371;28;20034;-71
2023/01/27 01:14:37;;;;;;;22.03;6.57;;;;;;;-0.49;100.00;101137.13;5000973;28;20117;-71
2023/01/27 01:17:02;;;;;;;19.47;6.27;;;;;;;-0.42;100.00;101137.41;5005543;28;20033;-71
2023/01/27 01:19:29;;;;;;;19.27;5.93;;;;;;;-0.50;100.00;101137.03;5001478;28;20029;-71
2023/01/27 01:21:54;;;;;;;17.10;5.10;;;;;;;-0.46;100.00;101137.28;5004243;28;20035;-71
2023/01/27 01:24:20;;;;;;;19.77;5.80;;;;;;;-0.38;100.00;101134.16;5003016;28;20397;-71
2023/01/27 01:26:45;;;;;;;19.87;5.63;;;;;;;-0.28;100.00;101134.66;5003353;28;20489;-71
2023/01/27 01:29:10;;;;;;;19.07;5.93;;;;;;;-0.24;100.00;101135.69;5003544;28;20129;-71
2023/01/27 01:31:36;;;;;;;19.60;6.20;;;;;;;-0.22;100.00;101123.69;5009076;28;20042;-71
2023/01/27 01:34:02;;;;;;;19.73;5.30;;;;;;;-0.25;100.00;101129.63;5004802;28;20050;-71
2023/01/27 01:36:27;;;;;;;19.13;6.17;;;;;;;-0.20;100.00;101127.25;5004959;28;20074;-71
2023/01/27 01:38:56;;;;;;;16.37;6.20;;;;;;;-0.09;100.00;101136.41;5004689;28;20058;-71
2023/01/27 01:41:23;;;;;;;15.50;5.97;;;;;;;-0.07;100.00;101127.00;5005317;28;20459;-71
2023/01/27 01:43:49;;;;;;;21.27;5.93;;;;;;;-0.04;100.00;101124.53;5006124;28;20420;-71
2023/01/27 01:46:16;;;;;;;19.53;5.57;;;;;;;-0.08;100.00;101132.09;5002593;28;20030;-71
2023/01/27 01:48:53;;;;;;;18.03;6.80;;;;;;;-0.08;100.00;101125.25;5012981;28;20084;-71
2023/01/27 01:51:36;;;;;;;16.20;6.03;;;;;;;-0.14;100.00;101122.34;5006468;28;20034;-71
2023/01/27 01:54:07;;;;;;;14.57;5.28;;;;;;;-0.14;100.00;101127.53;5003337;28;20038;-71
2023/01/27 01:56:51;;;;;;;19.93;6.10;;;;;;;-0.20;100.00;101129.84;5010517;28;20084;-71
2023/01/27 01:59:23;;;;;;;17.77;6.43;;;;;;;-0.17;100.00;101127.38;5014438;28;20417;-72
2023/01/27 02:01:55;;;;;;;19.83;6.07;;;;;;;-0.16;100.00;101118.78;5004885;28;20034;-71
2023/01/27 02:04:25;;;;;;;16.87;5.37;;;;;;;-0.14;100.00;101124.94;5004049;28;20046;-71
2023/01/27 02:06:59;;;;;;;14.50;4.90;;;;;;;-0.05;100.00;101120.19;5002105;28;20132;-71
2023/01/27 02:09:27;;;;;;;16.97;5.13;;;;;;;-0.06;100.00;101127.88;5005800;28;20117;-71
2023/01/27 02:11:52;;;;;;;14.20;5.23;;;;;;;-0.08;100.00;101130.44;5006200;28;20041;-71
2023/01/27 02:14:17;;;;;;;15.97;5.50;;;;;;;-0.10;100.00;101129.47;5002279;28;20034;-71
2023/01/27 02:16:43;;;;;;;15.30;5.60;;;;;;;-0.13;100.00;101134.50;5007341;28;20397;-72
2023/01/27 02:19:32;;;;;;;14.27;4.93;;;;;;;-0.12;100.00;101131.09;5005936;28;20124;-71
2023/01/27 02:22:00;;;;;;;14.20;4.50;;;;;;;-0.01;100.00;101135.06;5005325;28;20034;-72
2023/01/27 02:24:43;;;;;;;13.80;5.00;;;;;;;0.05;100.00;101138.75;5000726;28;20038;-71
2023/01/27 02:27:08;;;;;;;14.67;5.23;;;;;;;0.12;100.00;101148.59;5002579;28;20042;-71
2023/01/27 02:29:34;;;;;;;13.60;4.63;;;;;;;0.06;100.00;101145.75;5005081;28;20041;-71
2023/01/27 02:31:59;;;;;;;17.60;5.77;;;;;;;0.07;100.00;101147.50;5009570;28;20040;-71
2023/01/27 02:34:32;;;;;;;11.57;4.53;;;;;;;0.09;100.00;101148.47;5004455;28;20038;-71
2023/01/27 02:37:04;;;;;;;13.40;4.20;;;;;;;0.11;100.00;101154.63;5000626;28;20050;-71
2023/01/27 02:39:36;;;;;;;15.50;5.10;;;;;;;0.14;100.00;101145.25;5003732;28;20042;-71
2023/01/27 02:42:04;;;;;;;18.07;5.43;;;;;;;0.22;100.00;101149.09;5005110;28;20069;-71
2023/01/27 02:44:31;;;;;;;15.90;5.83;;;;;;;0.28;100.00;101153.66;5002195;28;20030;-71
2023/01/27 02:46:56;;;;;;;15.27;4.97;;;;;;;0.36;100.00;101157.50;5008601;28;20040;-71
2023/01/27 02:49:21;;;;;;;14.90;3.80;;;;;;;0.39;100.00;101157.66;5001603;28;20034;-71
2023/01/27 02:51:48;;;;;;;15.13;5.07;;;;;;;0.39;100.00;101159.34;5006843;28;20622;-71
2023/01/27 02:54:13;;;;;;;18.10;6.33;;;;;;;0.36;100.00;101157.50;5001275;28;20129;-71
2023/01/27 02:56:40;;;;;;;13.60;5.87;;;;;;;0.38;100.00;101155.88;5002605;28;20745;-71
2023/01/27 02:59:06;;;;;;;15.03;5.80;;;;;;;0.38;100.00;101163.66;5000983;28;20041;-70
2023/01/27 03:01:35;;;;;;;15.37;5.10;;;;;;;0.35;100.00;101160.94;5005411;28;20088;-71
2023/01/27 03:04:01;;;;;;;14.33;5.43;;;;;;;0.36;100.00;101165.28;5004014;28;20030;-71
2023/01/27 03:06:27;;;;;;;13.53;5.43;;;;;;;0.38;100.00;101166.25;5015951;28;20038;-71
2023/01/27 03:08:52;;;;;;;16.87;5.90;;;;;;;0.43;100.00;101164.75;5003644;28;20034;-71
2023/01/27 03:12:18;;;;;;;12.18;4.80;;;;;;;0.47;100.00;101154.50;5003500;28;20029;-71
2023/01/27 03:14:03;;;;;;;11.77;3.90;;;;;;;0.47;100.00;101164.88;5002986;28;20136;-71
2023/01/27 03:19:12;;;;;;;11.80;5.53;;;;;;;0.43;100.00;101166.47;5001654;28;20130;-71
2023/01/27 03:21:38;;;;;;;12.83;4.87;;;;;;;0.26;100.00;101168.28;5005267;28;20184;-71
2023/01/27 03:24:04;;;;;;;12.70;5.23;;;;;;;0.14;100.00;101175.53;5002818;28;20042;-71
2023/01/27 03:26:29;;;;;;;17.27;6.53;;;;;;;0.15;100.00;101177.28;5004822;28;20025;-72
2023/01/27 03:31:43;;;;;;;14.90;5.83;;;;;;;0.21;100.00;101172.41;5001511;28;20037;-71
2023/01/27 03:34:09;;;;;;;13.97;5.67;;;;;;;0.15;100.00;101173.00;5007364;28;20088;-71
2023/01/27 03:47:56;;;;;;;11.43;4.17;;;;;;;0.06;100.00;101179.47;5003259;28;20501;-71
2023/01/27 03:50:36;;;;;;;13.50;5.03;;;;;;;-0.07;100.00;101184.09;4999661;28;20041;-71
2023/01/27 03:53:01;;;;;;;12.83;4.43;;;;;;;-0.12;100.00;101185.56;5003500;28;20042;-71
2023/01/27 03:55:30;;;;;;;11.10;4.77;;;;;;;-0.07;100.00;101191.00;5001354;28;20032;-71
2023/01/27 03:57:55;;;;;;;10.97;4.07;;;;;;;-0.09;100.00;101182.22;5002152;28;20113;-71
2023/01/27 04:00:22;;;;;;;12.60;4.20;;;;;;;-0.18;100.00;101186.97;5000535;28;20152;-71
2023/01/27 04:08:14;;;;;;;13.43;4.70;;;;;;;-0.07;100.00;101181.50;4999473;28;20070;-71
2023/01/27 04:10:40;;;;;;;10.90;3.50;;;;;;;-0.14;100.00;101186.31;5003953;28;20115;-70
2023/01/27 04:13:05;;;;;;;9.93;4.17;;;;;;;-0.16;100.00;101190.53;5003251;28;20094;-71
2023/01/27 04:15:30;;;;;;;13.60;4.60;;;;;;;-0.12;100.00;101184.69;5002270;28;20104;-71
2023/01/27 04:17:56;;;;;;;11.80;5.83;;;;;;;-0.13;100.00;101186.41;5006654;28;20062;-71
2023/01/27 04:20:22;;;;;;;13.00;4.57;;;;;;;-0.06;100.00;101179.78;5002563;28;20042;-71
2023/01/27 04:22:47;;;;;;;13.17;4.37;;;;;;;-0.02;100.00;101180.00;5001357;28;20125;-71
2023/01/27 04:25:13;;;;;;;13.43;4.57;;;;;;;-0.02;100.00;101187.78;5002545;28;20030;-71
2023/01/27 04:27:38;;;;;;;13.17;4.40;;;;;;;-0.07;100.00;101191.00;5002401;28;20042;-71
2023/01/27 04:30:04;;;;;;;12.27;4.17;;;;;;;0.01;100.00;101187.03;5001947;28;20037;-71
2023/01/27 04:32:29;;;;;;;14.10;4.43;;;;;;;0.00;100.00;101187.88;5002905;28;20046;-71
2023/01/27 04:34:55;;;;;;;13.60;4.87;;;;;;;-0.01;100.00;101196.47;5000325;28;20036;-71
2023/01/27 04:37:20;;;;;;;11.87;4.77;;;;;;;-0.07;100.00;101191.88;5001237;28;20128;-71
2023/01/27 04:39:46;;;;;;;14.85;5.55;;;;;;;-0.05;100.00;101197.16;4967832;28;1016849;-70
2023/01/27 04:42:11;;;;;;;13.57;5.40;;;;;;;0.10;100.00;101204.75;5006540;28;20125;-71
2023/01/27 04:44:37;;;;;;;13.70;5.33;;;;;;;0.21;100.00;101201.84;5002138;28;20154;-71
2023/01/27 04:47:02;;;;;;;13.13;4.93;;;;;;;0.26;100.00;101199.44;5006625;28;20045;-71
2023/01/27 04:49:27;;;;;;;12.67;5.60;;;;;;;0.08;100.00;101206.38;5002027;28;20038;-72
2023/01/27 04:51:54;;;;;;;14.60;5.47;;;;;;;0.08;100.00;101201.19;5009370;28;20038;-71
2023/01/27 04:54:19;;;;;;;15.67;5.20;;;;;;;0.19;100.00;101206.06;5005088;28;20095;-71
2023/01/27 04:56:59;;;;;;;14.70;5.23;;;;;;;0.29;100.00;101202.19;5000500;28;20031;-71
2023/01/27 04:59:25;;;;;;;15.13;5.80;;;;;;;0.31;100.00;101197.06;5008769;28;20034;-71
2023/01/27 05:01:51;;;;;;;18.30;6.40;;;;;;;0.35;100.00;101197.28;5010784;28;20038;-72
2023/01/27 05:04:16;;;;;;;12.97;5.13;;;;;;;0.43;100.00;101195.91;5010577;28;20087;-71
2023/01/27 05:06:41;;;;;;;14.23;5.67;;;;;;;0.39;100.00;101195.69;5011632;28;20084;-71
2023/01/27 05:09:07;;;;;;;13.60;4.63;;;;;;;0.42;100.00;101194.16;5011181;28;20042;-71
2023/01/27 05:11:32;;;;;;;11.53;5.40;;;;;;;0.47;100.00;101202.13;5008828;28;20042;-72
2023/01/27 05:13:57;;;;;;;14.27;4.80;;;;;;;0.53;100.00;101198.94;5003885;28;20097;-71
2023/01/27 05:16:24;;;;;;;15.27;5.37;;;;;;;0.50;100.00;101203.97;5006184;28;20040;-71
2023/01/27 05:18:50;;;;;;;12.80;4.85;;;;;;;0.37;100.00;101206.03;5009668;28;20443;-71
2023/01/27 05:21:22;;;;;;;12.87;5.17;;;;;;;0.34;100.00;101202.38;5002142;28;20053;-72
2023/01/27 05:23:48;;;;;;;15.07;5.87;;;;;;;0.25;100.00;101199.38;5010095;28;20034;-71
2023/01/27 05:26:22;;;;;;;14.48;3.63;;;;;;;0.15;100.00;101204.13;5008566;28;20035;-72
2023/01/27 05:28:48;;;;;;;14.47;4.97;;;;;;;0.12;100.00;101218.69;5013124;28;20092;-72
2023/01/27 05:31:19;;;;;;;13.33;5.77;;;;;;;0.05;100.00;101212.31;5008837;28;20428;-72
2023/01/27 05:33:46;;;;;;;13.23;4.63;;;;;;;0.06;100.00;101214.09;5003498;28;20039;-72
2023/01/27 05:36:13;;;;;;;11.23;4.50;;;;;;;0.08;100.00;101215.06;5005577;28;20034;-72
2023/01/27 05:38:39;;;;;;;9.83;3.70;;;;;;;-0.05;100.00;101215.31;5003930;28;20192;-71
2023/01/27 05:41:07;;;;;;;10.20;3.60;;;;;;;-0.03;100.00;101214.56;5009454;28;20030;-72
2023/01/27 05:43:34;;;;;;;12.03;4.40;;;;;;;-0.10;100.00;101215.09;5009245;28;20496;-71
2023/01/27 05:46:18;;;;;;;12.03;4.27;;;;;;;-0.12;100.00;101213.22;5009172;28;20038;-72
2023/01/27 05:48:45;;;;;;;10.70;4.30;;;;;;;-0.08;100.00;101221.25;5012645;28;20038;-72
2023/01/27 05:51:13;;;;;;;9.00;3.63;;;;;;;0.04;100.00;101220.03;5010511;28;20037;-72
2023/01/27 05:53:38;;;;;;;10.73;3.80;;;;;;;0.08;100.00;101224.53;5011410;28;20511;-71
2023/01/27 05:56:05;;;;;;;9.77;3.27;;;;;;;0.11;100.00;101222.13;5011597;28;20026;-72
2023/01/27 05:58:30;;;;;;;10.53;4.80;;;;;;;0.07;100.00;101220.19;5011626;28;20045;-71
2023/01/27 06:01:04;;;;;;;9.73;4.50;;;;;;;-0.06;100.00;101217.00;5011181;28;20114;-71
2023/01/27 06:03:30;;;;;;;10.90;4.20;;;;;;;-0.14;100.00;101223.53;5008913;28;20109;-71
2023/01/27 06:05:56;;;;;;;10.80;3.93;;;;;;;-0.04;100.00;101223.16;5007296;28;20174;-71
2023/01/27 06:08:25;;;;;;;12.60;4.00;;;;;;;-0.01;100.00;101212.91;5015889;23;20054;-78
2023/01/27 06:10:52;;;;;;;9.97;3.80;;;;;;;0.04;100.00;101220.03;4988995;28;20039;-77
2023/01/27 06:13:20;;;;;;;13.50;3.87;;;;;;;0.14;100.00;101222.25;5002705;28;20049;-77
2023/01/27 06:15:46;;;;;;;10.43;3.57;;;;;;;0.19;100.00;101224.25;4986342;28;20117;-77
2023/01/27 06:18:13;;;;;;;11.17;4.73;;;;;;;0.32;100.00;101217.03;4989107;28;20054;-77
2023/01/27 06:20:39;;;;;;;13.80;4.53;;;;;;;0.35;100.00;101218.06;4984347;28;20496;-77
2023/01/27 06:23:06;;;;;;;9.83;3.97;;;;;;;0.40;100.00;101221.75;4988396;28;20194;-77
2023/01/27 06:25:36;;;;;;;10.07;4.27;;;;;;;0.40;100.00;101218.28;4992227;28;20041;-77
2023/01/27 06:28:01;;;;;;;8.80;3.87;;;;;;;0.29;100.00;101227.25;4989579;28;20045;-76
2023/01/27 06:30:26;;;;;;;9.27;4.47;;;;;;;0.29;100.00;101238.56;4988745;28;20038;-77
2023/01/27 06:32:52;;;;;;;11.83;4.13;;;;;;;0.31;100.00;101230.81;5002767;28;20043;-77
2023/01/27 06:35:17;;;;;;;11.17;4.73;;;;;;;0.28;100.00;101233.28;4984417;28;20065;-77
2023/01/27 06:37:42;;;;;;;11.97;3.53;;;;;;;0.29;100.00;101243.75;4985891;28;20122;-77
2023/01/27 06:40:08;;;;;;;10.17;4.40;;;;;;;0.15;100.00;101239.59;4987907;28;20404;-77
2023/01/27 06:42:34;;;;;;;10.20;3.93;;;;;;;0.10;100.00;101243.69;4991561;28;20045;-77
2023/01/27 06:44:59;;;;;;;13.47;3.63;;;;;;;0.01;100.00;101244.13;4989896;28;20047;-77
2023/01/27 06:47:25;;;;;;;12.93;5.50;;;;;;;0.04;100.00;101252.06;4991025;28;20030;-78
2023/01/27 06:49:50;;;;;;;13.03;5.87;;;;;;;0.16;100.00;101251.78;4988197;28;20037;-78
2023/01/27 06:52:15;;;;;;;12.33;5.20;;;;;;;0.25;100.00;101251.31;4987325;28;20027;-77
2023/01/27 06:54:41;;;;;;;11.33;4.37;;;;;;;0.24;100.00;101247.84;4986252;28;20494;-77
2023/01/27 06:57:08;;;;;;;12.77;4.80;;;;;;;0.33;100.00;101249.97;4984805;28;20110;-79
2023/01/27 06:59:33;;;;;;;16.90;6.07;;;;;;;0.39;100.00;101245.03;4983773;28;20040;-78
2023/01/27 07:01:59;;;;;;;13.17;5.37;;;;;;;0.40;100.00;101241.66;4984015;28;20039;-78
2023/01/27 07:04:24;;;;;;;14.23;6.20;;;;;;;0.49;100.00;101247.25;4987711;28;20151;-78
2023/01/27 07:06:49;;;;;;;13.80;6.20;;;;;;;0.52;100.00;101239.59;4989338;28;20043;-78
2023/01/27 07:09:15;;;;;;;11.67;4.63;;;;;;;0.56;100.00;101251.91;4991405;28;20045;-78
2023/01/27 07:11:40;;;;;;;12.90;5.38;;;;;;;0.50;100.00;101249.03;4988548;28;20043;-78
2023/01/27 07:14:05;;;;;;;10.10;4.72;;;;;;;0.47;100.00;101258.38;4985501;28;20042;-78
2023/01/27 07:16:31;;;;;;;13.75;5.18;;;;;;;0.53;100.00;101261.28;4988750;28;20031;-78
2023/01/27 07:18:56;;;;;;;11.43;5.10;;;;;;;0.56;100.00;101259.69;4989888;28;20035;-78
2023/01/27 07:21:21;;;;;;;13.20;6.27;;;;;;;0.62;100.00;101265.16;5004960;28;20026;-78
2023/01/27 07:23:47;;;;;;;15.00;6.43;;;;;;;0.72;100.00;101263.88;4991448;28;20045;-78
2023/01/27 07:26:12;;;;;;;15.70;4.93;;;;;;;0.86;100.00;101268.00;4987480;28;20042;-78
2023/01/27 07:28:37;;;;;;;16.25;7.28;;;;;;;0.96;100.00;101263.22;4988002;28;20035;-78
2023/01/27 07:31:03;;;;;;;19.08;7.65;;;;;;;1.03;100.00;101263.53;4985070;28;20034;-78
2023/01/27 07:33:28;;;;;;;19.50;11.40;;;;;;;1.05;100.00;101266.22;4991210;28;20113;-78
2023/01/27 07:35:54;;;;;;;1044.88;540.92;;;;;;;1.18;100.00;101275.44;4991290;28;20046;-78
2023/01/27 07:38:20;;;;;;;0.00;0.00;;;;;;;1.24;100.00;101274.00;4987801;28;20038;-78
2023/01/27 07:40:45;;;;;;;0.00;0.00;;;;;;;1.31;100.00;101275.16;4986036;28;20026;-78
2023/01/27 07:43:10;;;;;;;0.00;0.00;;;;;;;1.29;100.00;101276.81;4986021;28;20049;-78
2023/01/27 07:45:38;;;;;;;0.00;0.00;;;;;;;1.22;100.00;101283.44;4997794;28;20042;-78
2023/01/27 07:48:06;;;;;;;0.00;0.00;;;;;;;1.15;100.00;101294.38;4993957;28;20028;-78
2023/01/27 07:50:32;;;;;;;0.00;0.00;;;;;;;1.06;100.00;101286.19;4987012;28;20490;-78
2023/01/27 07:53:02;;;;;;;0.00;0.00;;;;;;;1.11;100.00;101292.47;4985587;28;20049;-78
2023/01/27 07:55:28;;;;;;;0.00;0.00;;;;;;;1.14;100.00;101292.63;4985469;28;20493;-78
2023/01/27 07:57:55;;;;;;;0.00;0.00;;;;;;;1.20;100.00;101303.28;4986269;28;20039;-78
2023/01/27 08:00:21;;;;;;;0.00;0.00;;;;;;;1.26;100.00;101298.38;4985464;28;20048;-78
2023/01/27 08:02:51;;;;;;;0.00;0.00;;;;;;;1.28;100.00;101309.72;4983619;28;20104;-78
2023/01/27 08:05:16;;;;;;;0.00;0.00;;;;;;;1.29;100.00;101298.50;4990761;28;20062;-78
2023/01/27 08:07:41;;;;;;;0.00;0.00;;;;;;;1.29;100.00;101302.81;4985762;28;20054;-78
2023/01/27 08:10:08;;;;;;;0.00;0.00;;;;;;;1.27;100.00;101294.94;4984121;28;20053;-77
2023/01/27 08:12:33;;;;;;;0.00;0.00;;;;;;;1.24;100.00;101304.31;4981720;28;20069;-78
2023/01/27 08:14:59;;;;;;;0.00;0.00;;;;;;;0.99;100.00;101304.94;4989174;28;20062;-78
2023/01/27 08:17:24;;;;;;;0.00;0.00;;;;;;;0.93;100.00;101307.25;4994620;28;20061;-78
2023/01/27 08:19:50;;;;;;;0.00;0.00;;;;;;;0.92;100.00;101308.06;4987553;28;20042;-78
2023/01/27 08:22:19;;;;;;;0.00;0.00;;;;;;;0.76;100.00;101311.66;4983168;28;20045;-78
2023/01/27 08:24:45;;;;;;;0.00;0.00;;;;;;;0.79;100.00;101307.53;4991176;28;20046;-78
2023/01/27 08:27:10;;;;;;;0.00;0.00;;;;;;;0.84;100.00;101318.13;4987703;28;20089;-78
2023/01/27 08:29:36;;;;;;;0.00;0.00;;;;;;;0.78;100.00;101308.31;4985346;28;20043;-78
2023/01/27 08:32:01;;;;;;;0.00;0.00;;;;;;;0.79;100.00;101309.25;4987787;28;20057;-78
2023/01/27 08:34:26;;;;;;;0.00;0.00;;;;;;;0.90;100.00;101312.31;4982975;28;20600;-78
2023/01/27 08:36:52;;;;;;;0.00;0.00;;;;;;;1.08;100.00;101307.94;4983748;28;20405;-78
2023/01/27 08:39:17;;;;;;;0.00;0.00;;;;;;;1.28;100.00;101314.00;4986038;28;20047;-78
2023/01/27 08:41:42;;;;;;;0.00;0.00;;;;;;;1.42;100.00;101319.84;4984669;28;20117;-78
2023/01/27 08:44:08;;;;;;;0.00;0.00;;;;;;;1.46;100.00;101321.75;4991945;28;20460;-78
2023/01/27 08:46:33;;;;;;;0.00;0.00;;;;;;;1.58;100.00;101322.28;4986732;28;20066;-78
2023/01/27 08:48:59;;;;;;;0.00;0.00;;;;;;;1.62;100.00;101329.38;4991139;28;20034;-78
2023/01/27 08:51:24;;;;;;;0.00;0.00;;;;;;;1.65;100.00;101324.31;4983678;28;20066;-78
2023/01/27 08:53:49;;;;;;;0.00;0.00;;;;;;;1.71;100.00;101334.97;4983270;28;20035;-78
2023/01/27 08:56:15;;;;;;;0.00;0.00;;;;;;;1.77;100.00;101334.34;4989249;28;20082;-78
2023/01/27 08:58:41;;;;;;;0.00;0.00;;;;;;;1.88;100.00;101332.19;4988961;28;20037;-78
2023/01/27 09:01:07;;;;;;;0.00;0.00;;;;;;;1.92;100.00;101339.31;4987836;28;20395;-78
2023/01/27 09:03:33;;;;;;;0.00;0.00;;;;;;;1.57;100.00;101335.19;4985490;28;20043;-78
2023/01/27 09:06:00;;;;;;;0.00;0.00;;;;;;;1.53;100.00;101339.41;4981882;28;20035;-78
2023/01/27 09:08:25;;;;;;;0.00;0.00;;;;;;;1.68;100.00;101334.84;4985027;28;20042;-78
2023/01/27 09:10:51;;;;;;;0.00;0.00;;;;;;;1.74;100.00;101342.03;4999320;28;20052;-78
2023/01/27 09:13:17;;;;;;;0.10;0.10;;;;;;;1.67;100.00;101337.38;4983601;28;20465;-78
2023/01/27 09:15:42;;;;;;;0.03;0.03;;;;;;;1.72;100.00;101341.94;4983874;28;20457;-78
2023/01/27 09:18:08;;;;;;;0.00;0.00;;;;;;;1.79;100.00;101340.50;5000013;28;20108;-78
2023/01/27 09:20:36;;;;;;;0.10;0.10;;;;;;;1.74;100.00;101340.31;4981650;28;20375;-78
2023/01/27 09:23:02;;;;;;;0.00;0.00;;;;;;;1.86;100.00;101334.75;4984781;28;20069;-78
2023/01/27 09:25:27;;;;;;;0.10;0.10;;;;;;;1.87;100.00;101331.31;4980749;28;20043;-78
2023/01/27 09:27:54;;;;;;;0.00;0.00;;;;;;;1.96;100.00;101336.00;4984523;28;20460;-77
2023/01/27 09:30:20;;;;;;;0.10;0.10;;;;;;;1.91;100.00;101340.13;4990473;28;20457;-78
2023/01/27 09:32:45;;;;;;;0.10;0.10;;;;;;;1.86;100.00;101337.34;4984932;28;20030;-78
2023/01/27 09:35:11;;;;;;;0.10;0.10;;;;;;;1.92;100.00;101344.53;4985015;28;20038;-78
2023/01/27 09:37:48;;;;;;;0.00;0.00;;;;;;;1.96;100.00;101346.41;4986210;28;20165;-78
2023/01/27 09:40:40;;;;;;;0.10;0.10;;;;;;;1.92;100.00;101352.34;4985881;28;20394;-78
2023/01/27 09:43:31;;;;;;;0.10;0.10;;;;;;;1.94;100.00;101342.88;4988885;28;20038;-78
2023/01/27 09:45:56;;;;;;;0.10;0.10;;;;;;;2.05;100.00;101346.81;4987660;28;20796;-78
2023/01/27 09:48:56;;;;;;;0.10;0.10;;;;;;;2.21;100.00;101347.44;4997608;28;20089;-78
2023/01/27 09:51:40;;;;;;;0.10;0.10;;;;;;;2.31;100.00;101341.78;4988473;28;20030;-78
2023/01/27 09:54:23;;;;;;;0.10;0.10;;;;;;;2.43;100.00;101334.44;4994746;28;20034;-78
2023/01/27 09:57:11;;;;;;;0.00;0.00;;;;;;;2.54;100.00;101340.97;4993142;28;20060;-78
2023/01/27 10:00:02;;;;;;;0.10;0.10;;;;;;;2.63;100.00;101351.75;4989150;28;20030;-78
2023/01/27 10:02:47;;;;;;;;;;;;;;;2.60;100.00;101333.38;5004632;28;20043;-78
2023/01/27 10:05:34;;;;;;;0.10;0.10;;;;;;;2.51;100.00;101335.63;4986460;28;19949;-78
2023/01/27 10:08:19;;;;;;;0.10;0.10;;;;;;;2.64;100.00;101334.38;4990084;28;20034;-78
2023/01/27 10:10:48;;;;;;;0.10;0.10;;;;;;;2.62;100.00;101336.97;4993845;28;20043;-78
2023/01/27 10:13:30;;;;;;;0.00;0.00;;;;;;;2.69;100.00;101338.06;4988647;28;20116;-78
2023/01/27 10:16:12;;;;;;;0.00;0.00;;;;;;;2.81;100.00;101333.31;4986070;28;20081;-78
2023/01/27 10:19:00;;;;;;;0.00;0.00;;;;;;;2.89;100.00;101338.84;4989771;28;20129;-78
2023/01/27 10:21:42;;;;;;;0.10;0.10;;;;;;;2.94;100.00;101342.50;4985111;28;20513;-78
2023/01/27 10:24:45;;;;;;;0.00;0.00;;;;;;;2.82;99.94;101344.63;4987241;28;20030;-78
2023/01/27 10:27:19;;;;;;;0.10;0.10;;;;;;;2.67;99.33;101344.03;4990918;28;20089;-78
2023/01/27 10:29:49;;;;;;;0.10;0.10;;;;;;;2.67;99.79;101352.75;4990599;28;20045;-78
2023/01/27 10:32:31;;;;;;;0.00;0.00;;;;;;;2.64;100.00;101343.09;4993077;28;20043;-78
2023/01/27 10:35:08;;;;;;;0.10;0.10;;;;;;;2.49;99.94;101355.53;4986689;28;20043;-78
2023/01/27 10:37:54;;;;;;;0.10;0.10;;;;;;;2.48;100.00;101342.44;4987186;28;20054;-78
2023/01/27 10:40:33;;;;;;;0.10;0.10;;;;;;;2.62;100.00;101347.38;4991206;28;20053;-78
2023/01/27 10:43:07;;;;;;;0.00;0.00;;;;;;;2.46;100.00;101355.41;4989889;28;20070;-78
2023/01/27 10:45:39;;;;;;;0.10;0.10;;;;;;;2.35;100.00;101351.47;4989424;28;20052;-78
2023/01/27 10:48:16;;;;;;;0.00;0.00;;;;;;;2.20;100.00;101356.94;4987899;28;20042;-78
2023/01/27 10:50:45;;;;;;;0.00;0.00;;;;;;;1.96;100.00;101349.00;4992240;28;20034;-78
2023/01/27 10:53:18;;;;;;;0.00;0.00;;;;;;;1.95;100.00;101365.47;4993377;28;20031;-78
2023/01/27 10:56:10;;;;;;;0.00;0.00;;;;;;;2.03;100.00;101352.78;4982612;28;20054;-78
2023/01/27 10:58:51;;;;;;;0.10;0.10;;;;;;;2.00;100.00;101363.06;4983659;28;20553;-79
2023/01/27 11:01:24;;;;;;;0.00;0.00;;;;;;;1.77;100.00;101354.28;4988253;28;20063;-77
2023/01/27 11:03:57;;;;;;;0.00;0.00;;;;;;;2.04;100.00;101362.34;4986034;28;20042;-77
2023/01/27 11:06:28;;;;;;;0.00;0.00;;;;;;;2.34;100.00;101360.13;4981709;28;20046;-79
2023/01/27 11:09:09;;;;;;;0.00;0.00;;;;;;;2.53;100.00;101366.97;4987106;28;20070;-77
2023/01/27 11:11:44;;;;;;;0.00;0.00;;;;;;;2.40;100.00;101366.47;4989997;28;20053;-77
2023/01/27 11:14:39;;;;;;;0.00;0.00;;;;;;;2.47;100.00;101369.34;4982572;28;20046;-77
2023/01/27 11:17:19;;;;;;;0.00;0.00;;;;;;;2.53;100.00;101366.97;4989503;28;20029;-77
2023/01/27 11:20:03;;;;;;;0.00;0.00;;;;;;;2.24;100.00;101379.69;4987034;28;20034;-77
2023/01/27 11:22:41;;;;;;;0.00;0.00;;;;;;;2.27;100.00;101371.13;4987909;28;20037;-77
2023/01/27 11:25:28;;;;;;;0.00;0.00;;;;;;;2.49;100.00;101363.38;4987146;28;20049;-77
2023/01/27 11:28:19;;;;;;;0.00;0.00;;;;;;;2.26;100.00;101365.03;4985233;28;20042;-77
2023/01/27 11:30:50;;;;;;;0.00;0.00;;;;;;;2.11;100.00;101370.50;4988338;28;20034;-77
2023/01/27 11:33:21;;;;;;;0.00;0.00;;;;;;;2.04;100.00;101371.06;4990390;28;20121;-77
2023/01/27 11:35:53;;;;;;;0.00;0.00;;;;;;;2.07;100.00;101372.91;4982881;28;20659;-77
2023/01/27 11:38:21;;;;;;;0.00;0.00;;;;;;;2.09;100.00;101361.72;4988513;28;20034;-78
2023/01/27 11:40:50;;;;;;;0.00;0.00;;;;;;;2.17;100.00;101368.16;4983470;28;20046;-78
2023/01/27 11:43:18;;;;;;;0.00;0.00;;;;;;;2.21;100.00;101357.88;4988188;28;20117;-77
2023/01/27 11:45:45;;;;;;;0.00;0.00;;;;;;;2.26;100.00;101351.13;4988035;28;20030;-78
2023/01/27 11:48:13;;;;;;;0.00;0.00;;;;;;;2.45;100.00;101348.41;4991455;28;20035;-77
2023/01/27 11:50:40;;;;;;;0.00;0.00;;;;;;;2.61;100.00;101345.56;4984939;28;20065;-77
2023/01/27 11:53:15;;;;;;;0.00;0.00;;;;;;;2.54;100.00;101342.66;4981980;28;20117;-77
2023/01/27 11:55:47;;;;;;;0.00;0.00;;;;;;;2.67;100.00;101338.84;4984849;28;20041;-77
2023/01/27 11:58:49;;;;;;;0.00;0.00;;;;;;;2.84;100.00;101332.56;4983340;28;20402;-77
2023/01/27 12:01:17;;;;;;;0.00;0.00;;;;;;;3.05;100.00;101335.09;4978521;28;20064;-77